createdAt,value
2022-12-24T00:00:07.360Z,97843.22
2022-12-24T00:02:34.749Z,97850.06
2022-12-24T00:05:01.909Z,97843.84
2022-12-24T00:07:29.644Z,97848.28
2022-12-24T00:09:56.405Z,97843.13
2022-12-24T00:12:23.944Z,97842.53
2022-12-24T00:14:50.731Z,97851.44
2022-12-24T00:17:17.814Z,97869.78
2022-12-24T00:19:44.572Z,97857.69
2022-12-24T00:22:11.766Z,97850.75
2022-12-24T00:24:38.530Z,97858.53
2022-12-24T00:27:06.034Z,97847.88
2022-12-24T00:29:33.592Z,97849.28
2022-12-24T00:32:01.042Z,97860.38
2022-12-24T00:34:27.881Z,97846.13
2022-12-24T00:36:54.945Z,97846.72
2022-12-24T00:39:21.753Z,97855.44
2022-12-24T00:41:48.993Z,97855.56
2022-12-24T00:44:15.803Z,97849.63
2022-12-24T00:46:43.084Z,97837.41
2022-12-24T00:49:11.238Z,97838.03
2022-12-24T00:51:38.457Z,97841.59
2022-12-24T00:54:06.042Z,97843.22
2022-12-24T00:56:33.521Z,97844.19
2022-12-24T00:59:00.636Z,97852.25
2022-12-24T01:01:28.126Z,97852.16
2022-12-24T01:04:15.563Z,97828.31
2022-12-24T01:06:42.642Z,97816.44
2022-12-24T01:09:09.420Z,97828.56
2022-12-24T01:11:36.525Z,97816.53
2022-12-24T01:14:03.310Z,97807.00
2022-12-24T01:16:30.477Z,97810.53
2022-12-24T01:18:57.505Z,97818.31
2022-12-24T01:21:24.588Z,97807.25
2022-12-24T01:23:52.437Z,97818.50
2022-12-24T01:26:19.488Z,97823.94
2022-12-24T01:28:46.227Z,97823.88
2022-12-24T01:31:14.557Z,97830.00
2022-12-24T01:33:41.768Z,97828.38
2022-12-24T01:36:09.405Z,97835.28
2022-12-24T01:38:36.194Z,97816.09
2022-12-24T01:41:21.599Z,97815.25
2022-12-24T01:43:48.431Z,97814.06
2022-12-24T01:46:25.990Z,97811.38
2022-12-24T01:48:54.395Z,97820.72
2022-12-24T01:51:30.628Z,97814.66
2022-12-24T01:54:04.122Z,97828.63
2022-12-24T01:56:32.515Z,97826.75
2022-12-24T01:59:03.553Z,97824.78
2022-12-24T02:01:30.961Z,97827.47
2022-12-24T02:03:57.853Z,97824.19
2022-12-24T02:06:25.102Z,97823.34
2022-12-24T02:08:51.870Z,97830.25
2022-12-24T02:11:20.534Z,97827.72
2022-12-24T02:13:53.491Z,97825.75
2022-12-24T02:16:38.891Z,97825.03
2022-12-24T02:19:24.864Z,97823.34
2022-12-24T02:22:02.850Z,97818.31
2022-12-24T02:24:38.711Z,97824.53
2022-12-24T02:27:05.722Z,97822.69
2022-12-24T02:29:51.358Z,97822.91
2022-12-24T02:32:21.382Z,97818.66
2022-12-24T02:34:52.052Z,97820.47
2022-12-24T02:37:31.514Z,97820.59
2022-12-24T02:40:12.134Z,97825.94
2022-12-24T02:42:44.804Z,97821.81
2022-12-24T02:45:14.792Z,97819.34
2022-12-24T02:47:43.135Z,97815.94
2022-12-24T02:50:11.051Z,97813.38
2022-12-24T02:52:39.550Z,97811.84
2022-12-24T02:55:09.311Z,97804.09
2022-12-24T02:57:36.371Z,97800.66
2022-12-24T03:00:06.007Z,97801.47
2022-12-24T03:02:45.244Z,97799.66
2022-12-24T03:05:12.151Z,97807.56
2022-12-24T03:07:45.248Z,97793.44
2022-12-24T03:10:11.930Z,97789.88
2022-12-24T03:12:41.586Z,97796.84
2022-12-24T03:15:09.394Z,97784.72
2022-12-24T03:17:38.307Z,97780.28
2022-12-24T03:20:06.536Z,97781.91
2022-12-24T03:22:34.645Z,97779.31
2022-12-24T03:25:01.603Z,97777.59
2022-12-24T03:27:30.203Z,97781.06
2022-12-24T03:29:57.505Z,97788.97
2022-12-24T03:32:31.940Z,97781.19
2022-12-24T03:34:58.999Z,97780.34
2022-12-24T03:37:26.789Z,97783.94
2022-12-24T03:39:53.608Z,97779.59
2022-12-24T03:42:20.641Z,97779.56
2022-12-24T03:44:47.456Z,97785.56
2022-12-24T03:47:14.632Z,97774.28
2022-12-24T03:49:41.416Z,97778.56
2022-12-24T03:52:08.572Z,97787.13
2022-12-24T03:54:35.313Z,97780.94
2022-12-24T03:57:02.329Z,97777.59
2022-12-24T03:59:29.079Z,97774.19
2022-12-24T04:01:56.215Z,97784.63
2022-12-24T04:04:23.080Z,97775.34
2022-12-24T04:06:50.127Z,97774.75
2022-12-24T04:09:16.902Z,97773.28
2022-12-24T04:11:43.995Z,97779.47
2022-12-24T04:14:10.779Z,97776.88
2022-12-24T04:16:38.010Z,97766.41
2022-12-24T04:19:04.866Z,97768.03
2022-12-24T04:21:31.933Z,97773.31
2022-12-24T04:23:58.678Z,97768.09
2022-12-24T04:26:25.803Z,97771.63
2022-12-24T04:28:53.263Z,97782.13
2022-12-24T04:31:20.456Z,97771.75
2022-12-24T04:33:47.511Z,97770.91
2022-12-24T04:36:17.276Z,97757.00
2022-12-24T04:38:44.248Z,97760.59
2022-12-24T04:41:23.305Z,97757.06
2022-12-24T04:43:51.072Z,97765.81
2022-12-24T04:46:22.978Z,97756.13
2022-12-24T04:48:50.630Z,97756.13
2022-12-24T04:51:18.367Z,97761.44
2022-12-24T04:53:45.181Z,97759.72
2022-12-24T04:56:25.545Z,97753.66
2022-12-24T04:58:52.328Z,97754.44
2022-12-24T05:01:21.369Z,97751.78
2022-12-24T05:03:48.686Z,97743.94
2022-12-24T05:06:17.190Z,97747.34
2022-12-24T05:08:44.063Z,97745.63
2022-12-24T05:11:14.423Z,97737.84
2022-12-24T05:13:47.269Z,97734.38
2022-12-24T05:16:16.056Z,97738.72
2022-12-24T05:18:42.890Z,97729.16
2022-12-24T05:21:11.128Z,97728.31
2022-12-24T05:23:57.142Z,97733.56
2022-12-24T05:26:29.999Z,97724.88
2022-12-24T05:28:57.468Z,97726.66
2022-12-24T05:31:25.809Z,97721.34
2022-12-24T05:33:54.833Z,97720.44
2022-12-24T05:36:23.100Z,97711.69
2022-12-24T05:38:50.266Z,97717.81
2022-12-24T05:41:17.554Z,97723.84
2022-12-24T05:43:44.422Z,97728.97
2022-12-24T05:46:12.903Z,97723.69
2022-12-24T05:48:39.756Z,97727.94
2022-12-24T05:51:08.168Z,97723.66
2022-12-24T05:53:35.484Z,97724.44
2022-12-24T05:56:06.410Z,97727.84
2022-12-24T05:58:33.218Z,97732.91
2022-12-24T06:01:01.028Z,97734.53
2022-12-24T06:03:28.222Z,97740.50
2022-12-24T06:06:02.108Z,97735.19
2022-12-24T06:08:29.376Z,97730.75
2022-12-24T06:10:57.231Z,97732.56
2022-12-24T06:13:24.426Z,97729.19
2022-12-24T06:15:54.274Z,97728.38
2022-12-24T06:18:21.208Z,97732.13
2022-12-24T06:20:54.872Z,97743.31
2022-12-24T06:23:22.309Z,97738.09
2022-12-24T06:25:51.472Z,97738.84
2022-12-24T06:28:18.739Z,97744.00
2022-12-24T06:30:49.462Z,97736.16
2022-12-24T06:33:16.863Z,97738.59
2022-12-24T06:35:47.289Z,97743.75
2022-12-24T06:38:14.805Z,97740.38
2022-12-24T06:40:46.186Z,97740.50
2022-12-24T06:43:13.885Z,97738.84
2022-12-24T06:45:44.497Z,97747.59
2022-12-24T06:48:11.370Z,97754.47
2022-12-24T06:50:38.845Z,97749.28
2022-12-24T06:53:05.731Z,97759.56
2022-12-24T06:55:35.576Z,97750.75
2022-12-24T06:58:03.090Z,97749.78
2022-12-24T07:00:30.266Z,97751.25
2022-12-24T07:02:57.104Z,97762.44
2022-12-24T07:05:24.513Z,97759.84
2022-12-24T07:08:00.533Z,97766.75
2022-12-24T07:10:29.429Z,97768.31
2022-12-24T07:12:56.189Z,97775.38
2022-12-24T07:15:23.293Z,97784.09
2022-12-24T07:17:52.553Z,97772.69
2022-12-24T07:20:19.783Z,97778.66
2022-12-24T07:22:48.991Z,97775.13
2022-12-24T07:25:19.064Z,97769.03
2022-12-24T07:27:45.952Z,97764.53
2022-12-24T07:30:16.872Z,97761.84
2022-12-24T07:32:46.664Z,97753.16
2022-12-24T07:35:13.769Z,97767.03
2022-12-24T07:37:40.856Z,97767.81
2022-12-24T07:40:11.504Z,97766.09
2022-12-24T07:42:38.255Z,97767.03
2022-12-24T07:45:05.708Z,97775.56
2022-12-24T07:47:32.492Z,97777.38
2022-12-24T07:49:59.677Z,97784.28
2022-12-24T07:52:33.445Z,97786.75
2022-12-24T07:55:00.644Z,97788.31
2022-12-24T07:57:27.427Z,97792.50
2022-12-24T07:59:54.492Z,97789.03
2022-12-24T08:02:21.287Z,97801.06
2022-12-24T08:04:48.591Z,97793.09
2022-12-24T08:07:15.341Z,97789.59
2022-12-24T08:09:42.648Z,97790.34
2022-12-24T08:12:09.463Z,97786.78
2022-12-24T08:14:36.541Z,97798.13
2022-12-24T08:17:03.448Z,97793.59
2022-12-24T08:19:30.589Z,97799.69
2022-12-24T08:21:57.354Z,97797.78
2022-12-24T08:24:24.534Z,97801.13
2022-12-24T08:26:51.281Z,97808.03
2022-12-24T08:29:19.639Z,97815.09
2022-12-24T08:31:46.462Z,97816.81
2022-12-24T08:34:13.611Z,97815.25
2022-12-24T08:36:40.366Z,97825.50
2022-12-24T08:39:09.047Z,97821.94
2022-12-24T08:41:35.978Z,97827.97
2022-12-24T08:44:03.138Z,97833.19
2022-12-24T08:46:30.163Z,97831.38
2022-12-24T08:48:57.324Z,97829.53
2022-12-24T08:51:24.180Z,97819.81
2022-12-24T08:53:51.265Z,97830.91
2022-12-24T08:56:18.158Z,97834.31
2022-12-24T08:58:45.275Z,97831.47
2022-12-24T09:01:13.759Z,97827.81
2022-12-24T09:03:41.114Z,97832.69
2022-12-24T09:06:08.320Z,97837.72
2022-12-24T09:08:35.602Z,97837.50
2022-12-24T09:11:06.649Z,97840.69
2022-12-24T09:13:33.837Z,97837.03
2022-12-24T09:16:00.587Z,97838.44
2022-12-24T09:18:27.941Z,97831.88
2022-12-24T09:21:05.997Z,97836.53
2022-12-24T09:23:35.134Z,97824.94
2022-12-24T09:26:05.276Z,97834.25
2022-12-24T09:28:32.295Z,97835.03
2022-12-24T09:30:59.907Z,97840.16
2022-12-24T09:33:27.678Z,97835.75
2022-12-24T09:35:54.721Z,97833.28
2022-12-24T09:38:21.887Z,97833.19
2022-12-24T09:40:49.355Z,97846.06
2022-12-24T09:43:21.075Z,97846.78
2022-12-24T09:45:53.753Z,97840.31
2022-12-24T09:48:24.366Z,97837.44
2022-12-24T09:50:51.097Z,97840.69
2022-12-24T09:53:22.195Z,97845.56
2022-12-24T09:55:51.556Z,97848.03
2022-12-24T09:58:31.399Z,97851.44
2022-12-24T10:00:58.283Z,97861.91
2022-12-24T10:03:25.581Z,97859.22
2022-12-24T10:06:11.101Z,97853.34
2022-12-24T10:08:41.234Z,97849.94
2022-12-24T10:11:16.045Z,97856.06
2022-12-24T10:14:01.876Z,97849.72
2022-12-24T10:16:40.981Z,97859.97
2022-12-24T10:19:23.209Z,97861.53
2022-12-24T10:22:14.720Z,97864.56
2022-12-24T10:25:00.294Z,97856.16
2022-12-24T10:27:31.861Z,97854.25
2022-12-24T10:30:04.122Z,97860.97
2022-12-24T10:32:32.980Z,97867.38
2022-12-24T10:35:04.538Z,97858.66
2022-12-24T10:37:31.874Z,97864.81
2022-12-24T10:40:00.381Z,97868.91
2022-12-24T10:42:38.650Z,97860.56
2022-12-24T10:45:07.032Z,97867.03
2022-12-24T10:47:35.249Z,97869.09
2022-12-24T10:50:10.804Z,97868.56
2022-12-24T10:52:40.774Z,97864.44
2022-12-24T10:55:08.318Z,97862.41
2022-12-24T10:57:35.208Z,97870.13
2022-12-24T11:00:03.233Z,97856.22
2022-12-24T11:02:34.466Z,97861.81
2022-12-24T11:05:02.778Z,97861.38
2022-12-24T11:07:31.966Z,97859.59
2022-12-24T11:09:59.521Z,97857.63
2022-12-24T11:12:42.264Z,97876.19
2022-12-24T11:15:17.901Z,97872.84
2022-12-24T11:18:03.955Z,97872.19
2022-12-24T11:20:32.690Z,97869.88
2022-12-24T11:23:00.183Z,97877.75
2022-12-24T11:25:33.156Z,97876.97
2022-12-24T11:28:18.795Z,97879.59
2022-12-24T11:30:56.429Z,97884.25
2022-12-24T11:33:23.785Z,97874.91
2022-12-24T11:35:56.372Z,97879.31
2022-12-24T11:38:25.149Z,97878.94
2022-12-24T11:41:02.929Z,97882.81
2022-12-24T11:43:45.007Z,97883.16
2022-12-24T11:46:15.561Z,97891.28
2022-12-24T11:48:42.791Z,97895.13
2022-12-24T11:54:37.166Z,97895.34
2022-12-24T11:57:15.331Z,97896.25
2022-12-24T11:59:47.425Z,97904.22
2022-12-24T12:02:14.705Z,97902.44
2022-12-24T12:04:43.347Z,97907.69
2022-12-24T12:07:26.555Z,97908.59
2022-12-24T12:09:59.658Z,97901.59
2022-12-24T12:12:28.379Z,97912.00
2022-12-24T12:15:07.137Z,97913.00
2022-12-24T12:17:45.198Z,97908.69
2022-12-24T12:20:15.032Z,97911.31
2022-12-24T12:23:00.753Z,97909.69
2022-12-24T12:25:45.393Z,97903.69
2022-12-24T12:28:31.101Z,97915.72
2022-12-24T12:31:03.922Z,97919.41
2022-12-24T12:33:39.719Z,97927.19
2022-12-24T12:36:08.445Z,97930.53
2022-12-24T12:38:37.888Z,97929.59
2022-12-24T12:41:14.960Z,97930.47
2022-12-24T12:44:15.310Z,97928.63
2022-12-24T12:47:01.402Z,97931.22
2022-12-24T12:52:57.341Z,97932.69
2022-12-24T12:55:52.536Z,97936.94
